createdAt,value
2019-06-26T00:03:42.163Z,5.70
2019-06-26T00:07:43.924Z,6.58
2019-06-26T00:11:45.637Z,5.67
2019-06-26T00:15:47.375Z,6.17
2019-06-26T00:19:49.443Z,5.62
2019-06-26T00:23:51.631Z,6.35
2019-06-26T00:27:53.344Z,6.03
2019-06-26T00:31:55.128Z,7.45
2019-06-26T00:35:56.834Z,7.53
2019-06-26T00:39:58.544Z,7.55
2019-06-26T00:44:00.722Z,8.93
2019-06-26T00:48:02.490Z,8.45
2019-06-26T00:52:04.302Z,7.65
2019-06-26T00:56:06.029Z,7.95
2019-06-26T01:00:08.244Z,8.38
2019-06-26T01:04:09.990Z,9.10
2019-06-26T01:08:11.690Z,10.13
2019-06-26T01:12:13.417Z,10.25
2019-06-26T01:16:15.261Z,11.45
2019-06-26T01:20:17.257Z,11.48
2019-06-26T01:24:18.970Z,12.55
2019-06-26T01:28:20.676Z,11.45
2019-06-26T01:32:22.797Z,14.25
2019-06-26T01:36:24.515Z,12.88
2019-06-26T01:40:26.224Z,12.35
2019-06-26T01:44:28.676Z,13.60
2019-06-26T01:48:30.415Z,12.37
2019-06-26T01:52:32.118Z,12.93
2019-06-26T01:56:34.113Z,13.65
2019-06-26T02:00:36.208Z,13.28
2019-06-26T02:04:37.967Z,14.18
2019-06-26T02:08:40.242Z,14.90
2019-06-26T02:12:41.980Z,15.80
2019-06-26T02:16:43.755Z,15.32
2019-06-26T02:20:45.749Z,13.75
2019-06-26T02:24:47.490Z,15.83
2019-06-26T02:28:49.294Z,14.25
2019-06-26T02:32:51.332Z,14.05
2019-06-26T02:36:53.053Z,14.80
2019-06-26T02:40:54.762Z,14.70
2019-06-26T02:44:56.580Z,17.45
2019-06-26T02:48:58.468Z,19.10
2019-06-26T02:53:00.200Z,19.82
2019-06-26T02:57:02.261Z,20.10
2019-06-26T03:01:03.967Z,21.02
2019-06-26T03:05:05.961Z,23.18
2019-06-26T03:09:07.969Z,28.60
2019-06-26T03:13:10.369Z,32.03
2019-06-26T03:17:12.094Z,27.02
2019-06-26T03:21:13.854Z,31.40
2019-06-26T03:25:16.411Z,31.27
2019-06-26T03:29:18.306Z,37.50
2019-06-26T03:33:20.305Z,38.63
2019-06-26T03:37:22.011Z,42.40
2019-06-26T03:41:23.815Z,44.40
2019-06-26T03:45:26.575Z,44.35
2019-06-26T03:49:29.255Z,43.48
2019-06-26T03:53:31.028Z,42.83
2019-06-26T03:57:35.346Z,39.58
2019-06-26T04:01:36.751Z,41.30
2019-06-26T04:05:38.459Z,40.35
2019-06-26T04:09:40.538Z,41.55
2019-06-26T04:13:42.306Z,36.93
2019-06-26T04:17:44.384Z,40.35
2019-06-26T04:21:46.253Z,36.70
2019-06-26T04:25:47.973Z,38.50
2019-06-26T04:29:49.709Z,41.42
2019-06-26T04:33:51.412Z,42.53
2019-06-26T04:37:53.200Z,39.53
2019-06-26T04:41:54.879Z,41.55
2019-06-26T04:45:58.573Z,41.10
2019-06-26T04:50:00.333Z,39.48
2019-06-26T04:54:02.337Z,44.08
2019-06-26T04:58:04.421Z,40.65
2019-06-26T05:02:06.137Z,41.37
2019-06-26T05:06:07.901Z,39.45
2019-06-26T05:10:10.552Z,42.15
2019-06-26T05:14:12.346Z,42.43
2019-06-26T05:18:14.445Z,43.20
2019-06-26T05:22:16.576Z,42.60
2019-06-26T05:26:18.374Z,41.02
2019-06-26T05:30:20.551Z,39.48
2019-06-26T05:34:22.579Z,40.85
2019-06-26T05:38:24.724Z,36.95
2019-06-26T05:42:26.743Z,32.08
2019-06-26T05:46:31.532Z,34.48
2019-06-26T05:50:33.388Z,33.02
2019-06-26T05:54:35.534Z,35.35
2019-06-26T05:58:37.380Z,36.73
2019-06-26T06:02:39.744Z,37.23
2019-06-26T06:06:42.492Z,35.30
2019-06-26T06:10:44.531Z,36.88
2019-06-26T06:14:46.804Z,36.35
2019-06-26T06:18:49.162Z,35.17
2019-06-26T06:22:50.992Z,35.78
2019-06-26T06:26:53.234Z,37.55
2019-06-26T06:30:55.117Z,35.43
2019-06-26T06:34:57.101Z,32.93
2019-06-26T06:38:59.278Z,35.05
2019-06-26T06:43:01.845Z,31.15
2019-06-26T06:47:05.590Z,32.65
2019-06-26T06:51:07.552Z,30.20
2019-06-26T06:55:10.225Z,29.05
2019-06-26T06:59:12.441Z,31.57
2019-06-26T07:03:14.150Z,29.05
2019-06-26T07:07:16.262Z,32.65
2019-06-26T07:11:18.377Z,30.90
2019-06-26T07:15:20.476Z,34.13
2019-06-26T07:19:22.372Z,31.07
2019-06-26T07:23:24.070Z,30.88
2019-06-26T07:27:26.301Z,29.85
2019-06-26T07:31:28.080Z,28.15
2019-06-26T07:35:29.785Z,29.30
2019-06-26T07:39:34.546Z,23.98
2019-06-26T07:43:36.539Z,22.10
2019-06-26T07:47:43.718Z,28.02
2019-06-26T07:51:42.767Z,29.67
2019-06-26T07:55:44.881Z,27.60
2019-06-26T07:59:46.871Z,25.75
2019-06-26T08:03:48.590Z,26.87
2019-06-26T08:07:51.723Z,24.95
2019-06-26T08:11:54.307Z,31.12
2019-06-26T08:15:57.107Z,27.98
2019-06-26T08:19:59.196Z,24.85
2019-06-26T08:24:01.305Z,21.07
2019-06-26T08:28:03.106Z,21.45
2019-06-26T08:32:04.945Z,23.92
2019-06-26T08:36:06.836Z,21.68
2019-06-26T08:40:08.864Z,20.02
2019-06-26T08:44:10.588Z,19.77
2019-06-26T08:48:19.243Z,21.50
2019-06-26T08:52:16.488Z,20.45
2019-06-26T08:56:18.206Z,19.70
2019-06-26T09:00:20.170Z,15.13
2019-06-26T09:04:21.890Z,13.70
2019-06-26T09:08:24.706Z,15.88
2019-06-26T09:12:26.887Z,13.93
2019-06-26T09:16:28.717Z,16.30
2019-06-26T09:20:36.313Z,22.13
2019-06-26T09:24:38.155Z,22.30
2019-06-26T09:28:40.445Z,19.55
2019-06-26T09:32:46.269Z,17.45
2019-06-26T09:36:54.885Z,17.57
2019-06-26T09:40:57.315Z,20.62
2019-06-26T09:44:59.170Z,18.67
2019-06-26T09:49:04.292Z,15.68
2019-06-26T09:53:06.474Z,16.12
2019-06-26T09:57:09.630Z,14.13
2019-06-26T10:01:13.327Z,14.87
2019-06-26T10:05:15.706Z,13.22
2019-06-26T10:09:18.631Z,14.98
2019-06-26T10:13:20.922Z,13.00
2019-06-26T10:17:23.273Z,11.03
2019-06-26T10:21:25.075Z,10.55
2019-06-26T10:25:28.029Z,11.57
2019-06-26T10:29:30.206Z,9.78
2019-06-26T10:33:32.384Z,10.95
2019-06-26T10:37:34.252Z,9.03
2019-06-26T10:41:36.941Z,10.15
2019-06-26T10:45:38.711Z,9.68
2019-06-26T10:49:40.423Z,11.97
2019-06-26T10:53:43.151Z,10.32
2019-06-26T10:57:45.453Z,11.08
2019-06-26T11:01:48.178Z,10.30
2019-06-26T11:05:49.976Z,13.70
2019-06-26T11:09:52.874Z,11.70
2019-06-26T11:13:55.367Z,11.15
2019-06-26T11:17:57.716Z,16.25
2019-06-26T11:21:59.436Z,16.15
2019-06-26T11:26:04.209Z,14.50
2019-06-26T11:30:09.256Z,15.18
2019-06-26T11:34:11.580Z,14.10
2019-06-26T11:38:14.399Z,14.28
2019-06-26T11:42:16.657Z,11.25
2019-06-26T11:46:18.752Z,12.33
2019-06-26T11:50:22.663Z,14.78
2019-06-26T11:54:25.219Z,17.70
2019-06-26T11:58:26.993Z,14.83
2019-06-26T12:02:29.477Z,15.93
2019-06-26T12:06:31.745Z,13.78
2019-06-26T12:10:33.539Z,16.32
2019-06-26T12:14:36.139Z,13.95
2019-06-26T12:18:38.078Z,16.55
2019-06-26T12:22:40.583Z,14.65
2019-06-26T12:26:42.370Z,13.53
2019-06-26T12:30:44.928Z,17.12
2019-06-26T12:34:47.104Z,14.33
2019-06-26T12:38:49.180Z,13.40
2019-06-26T12:42:54.526Z,12.45
2019-06-26T12:46:54.901Z,10.35
2019-06-26T12:50:58.270Z,13.30
2019-06-26T12:55:00.071Z,12.60
2019-06-26T12:59:01.930Z,12.30
2019-06-26T13:03:04.472Z,13.43
2019-06-26T13:07:06.796Z,14.28
2019-06-26T13:11:08.578Z,11.30
2019-06-26T13:15:16.446Z,13.93
2019-06-26T13:19:23.995Z,12.73
2019-06-26T13:27:27.935Z,11.83
2019-06-26T13:31:30.293Z,11.78
2019-06-26T13:35:32.681Z,18.07
2019-06-26T13:39:34.962Z,16.40
2019-06-26T13:43:37.029Z,16.93
2019-06-26T13:47:39.246Z,14.47
2019-06-26T13:51:41.009Z,15.00
2019-06-26T13:55:43.168Z,12.35
2019-06-26T13:59:44.985Z,13.98
2019-06-26T14:03:46.790Z,12.70
2019-06-26T14:07:48.979Z,12.40
2019-06-26T14:11:51.696Z,13.22
2019-06-26T14:15:53.827Z,11.60
2019-06-26T14:19:55.869Z,11.55
2019-06-26T14:23:57.734Z,10.63
2019-06-26T14:27:59.904Z,12.15
2019-06-26T14:32:01.656Z,12.23
2019-06-26T14:36:03.386Z,13.00
2019-06-26T14:40:05.432Z,10.60
2019-06-26T14:44:07.181Z,10.32
2019-06-26T14:48:09.086Z,8.83
2019-06-26T14:52:10.986Z,10.30
2019-06-26T14:56:12.823Z,10.48
2019-06-26T15:00:15.986Z,9.13
2019-06-26T15:04:18.484Z,8.78
2019-06-26T15:08:21.175Z,8.75
2019-06-26T15:12:22.996Z,8.78
2019-06-26T15:16:25.844Z,8.30
2019-06-26T15:20:33.344Z,7.78
2019-06-26T15:24:35.060Z,10.00
2019-06-26T15:28:37.259Z,9.98
2019-06-26T15:32:39.583Z,9.93
2019-06-26T15:36:41.694Z,10.93
2019-06-26T15:40:44.404Z,9.63
2019-06-26T15:44:46.592Z,8.33
2019-06-26T15:48:50.415Z,8.28
2019-06-26T15:52:52.465Z,8.43
2019-06-26T15:56:54.310Z,8.50
2019-06-26T16:00:56.062Z,7.12
2019-06-26T16:04:57.824Z,7.17
2019-06-26T16:08:59.946Z,7.10
2019-06-26T16:13:04.220Z,6.33
2019-06-26T16:17:06.911Z,6.92
2019-06-26T16:26:22.410Z,8.75
2019-06-26T16:30:24.665Z,9.68
2019-06-26T16:34:28.049Z,10.10
2019-06-26T16:38:30.322Z,11.80
2019-06-26T16:42:32.514Z,12.82
2019-06-26T16:46:34.604Z,12.50
2019-06-26T16:50:36.806Z,12.37
2019-06-26T16:54:38.894Z,12.60
2019-06-26T16:58:40.837Z,12.53
2019-06-26T17:02:42.564Z,11.22
2019-06-26T17:06:44.270Z,10.45
2019-06-26T17:10:46.410Z,11.12
2019-06-26T17:14:48.546Z,11.93
2019-06-26T17:18:50.729Z,12.40
2019-06-26T17:23:05.011Z,10.50
2019-06-26T17:26:59.576Z,10.20
2019-06-26T17:31:02.458Z,10.72
2019-06-26T17:35:04.841Z,10.75
2019-06-26T17:39:06.696Z,9.53
2019-06-26T17:43:12.652Z,8.00
2019-06-26T17:47:12.916Z,8.98
2019-06-26T17:51:14.627Z,7.62
2019-06-26T17:55:16.404Z,8.68
2019-06-26T17:59:18.149Z,8.58
2019-06-26T18:03:20.123Z,8.70
2019-06-26T18:07:22.641Z,8.93
2019-06-26T18:11:24.674Z,8.05
2019-06-26T18:15:27.009Z,7.85
2019-06-26T18:19:29.454Z,8.13
2019-06-26T18:23:37.562Z,7.70
2019-06-26T18:27:38.058Z,8.13
2019-06-26T18:31:40.912Z,7.45
2019-06-26T18:35:43.307Z,7.00
2019-06-26T18:39:45.852Z,8.40
2019-06-26T18:43:48.928Z,8.50
2019-06-26T18:47:51.307Z,8.35
2019-06-26T18:51:53.575Z,8.83
2019-06-26T18:55:55.913Z,8.80
2019-06-26T19:00:03.205Z,9.23
2019-06-26T19:04:05.812Z,9.60
2019-06-26T19:08:08.587Z,10.45
2019-06-26T19:12:10.885Z,9.90
2019-06-26T19:16:14.227Z,9.23
2019-06-26T19:20:16.509Z,8.03
2019-06-26T19:24:18.907Z,8.70
2019-06-26T19:28:23.287Z,8.35
2019-06-26T19:32:30.750Z,8.83
2019-06-26T19:36:49.013Z,7.80
2019-06-26T19:40:38.856Z,8.75
2019-06-26T19:44:41.919Z,7.95
2019-06-26T19:48:43.717Z,8.73
2019-06-26T19:52:46.519Z,7.72
2019-06-26T19:56:48.653Z,7.87
2019-06-26T20:00:50.833Z,7.40
2019-06-26T20:04:53.015Z,7.35
2019-06-26T20:08:57.635Z,7.67
2019-06-26T20:13:00.572Z,7.00
2019-06-26T20:17:02.799Z,6.90
2019-06-26T20:25:15.311Z,6.45
2019-06-26T20:29:17.900Z,4.83
2019-06-26T20:33:20.436Z,5.03
2019-06-26T20:37:22.294Z,4.87
2019-06-26T20:41:25.491Z,5.33
2019-06-26T20:45:27.231Z,4.47
2019-06-26T20:49:29.438Z,4.72
2019-06-26T20:53:33.975Z,4.58
2019-06-26T20:57:37.071Z,5.42
2019-06-26T21:01:39.732Z,3.95
2019-06-26T21:05:41.957Z,4.67
2019-06-26T21:09:44.004Z,4.12
2019-06-26T21:13:45.742Z,3.87
2019-06-26T21:17:48.715Z,4.78
2019-06-26T21:21:50.801Z,4.03
2019-06-26T21:25:52.738Z,4.35
2019-06-26T21:29:57.597Z,4.22
2019-06-26T21:33:59.423Z,4.17
2019-06-26T21:38:01.291Z,4.10
2019-06-26T21:42:03.156Z,4.20
2019-06-26T21:46:04.909Z,3.77
2019-06-26T21:50:07.076Z,3.77
2019-06-26T21:54:08.871Z,3.90
2019-06-26T21:58:10.796Z,4.37
2019-06-26T22:02:18.572Z,4.05
2019-06-26T22:06:21.835Z,4.17
2019-06-26T22:10:29.398Z,3.55
2019-06-26T22:14:33.737Z,3.77
2019-06-26T22:18:36.161Z,3.47
2019-06-26T22:22:38.135Z,4.17
2019-06-26T22:26:40.792Z,3.62
2019-06-26T22:31:04.747Z,4.00
2019-06-26T22:35:06.728Z,3.55
2019-06-26T22:39:08.944Z,2.95
2019-06-26T22:43:10.732Z,3.50
2019-06-26T22:47:12.530Z,4.17
2019-06-26T22:51:14.529Z,3.70
2019-06-26T22:55:16.706Z,2.95
2019-06-26T22:59:18.464Z,3.47
2019-06-26T23:03:20.332Z,4.33
2019-06-26T23:07:22.489Z,3.10
2019-06-26T23:11:24.671Z,3.40
2019-06-26T23:15:26.821Z,3.20
2019-06-26T23:19:28.987Z,3.10
2019-06-26T23:23:30.999Z,3.40
2019-06-26T23:27:32.717Z,3.70
2019-06-26T23:31:34.437Z,3.90
2019-06-26T23:35:36.319Z,2.98
2019-06-26T23:39:38.438Z,4.08
2019-06-26T23:43:40.239Z,3.85
2019-06-26T23:47:42.597Z,3.22
2019-06-26T23:51:44.692Z,3.25
2019-06-26T23:55:46.788Z,6.15
2019-06-26T23:59:48.788Z,3.87
